sensor_id;sensor_type;location;lat;lon;timestamp;temperature;humidity
39021;DHT22;25188;51.958;5.842;2024-03-06T00:00:01;8.30;99.90
39021;DHT22;25188;51.958;5.842;2024-03-06T00:02:26;8.30;99.90
39021;DHT22;25188;51.958;5.842;2024-03-06T00:04:52;8.20;99.90
39021;DHT22;25188;51.958;5.842;2024-03-06T00:07:19;8.20;99.90
39021;DHT22;25188;51.958;5.842;2024-03-06T00:09:44;8.10;99.90
39021;DHT22;25188;51.958;5.842;2024-03-06T00:12:10;8.10;99.90
39021;DHT22;25188;51.958;5.842;2024-03-06T00:14:35;8.00;99.90
39021;DHT22;25188;51.958;5.842;2024-03-06T00:17:02;7.90;99.90
39021;DHT22;25188;51.958;5.842;2024-03-06T00:19:32;7.90;99.90
39021;DHT22;25188;51.958;5.842;2024-03-06T00:21:59;7.80;99.90
39021;DHT22;25188;51.958;5.842;2024-03-06T00:24:25;7.80;99.90
39021;DHT22;25188;51.958;5.842;2024-03-06T00:26:50;7.70;99.90
39021;DHT22;25188;51.958;5.842;2024-03-06T00:29:16;7.70;99.90
39021;DHT22;25188;51.958;5.842;2024-03-06T00:31:43;7.60;99.90
39021;DHT22;25188;51.958;5.842;2024-03-06T00:34:10;7.60;99.90
39021;DHT22;25188;51.958;5.842;2024-03-06T00:36:37;7.60;99.90
39021;DHT22;25188;51.958;5.842;2024-03-06T00:39:02;7.50;99.90
39021;DHT22;25188;51.958;5.842;2024-03-06T00:41:30;7.50;99.90
39021;DHT22;25188;51.958;5.842;2024-03-06T00:43:56;7.40;99.90
39021;DHT22;25188;51.958;5.842;2024-03-06T00:46:22;7.40;99.90
39021;DHT22;25188;51.958;5.842;2024-03-06T00:48:48;7.40;99.90
39021;DHT22;25188;51.958;5.842;2024-03-06T00:51:14;7.30;99.90
39021;DHT22;25188;51.958;5.842;2024-03-06T00:53:40;7.30;99.90
39021;DHT22;25188;51.958;5.842;2024-03-06T00:56:06;7.20;99.90
39021;DHT22;25188;51.958;5.842;2024-03-06T00:58:32;7.20;99.90
39021;DHT22;25188;51.958;5.842;2024-03-06T01:00:57;7.10;99.90
39021;DHT22;25188;51.958;5.842;2024-03-06T01:03:24;7.10;99.90
39021;DHT22;25188;51.958;5.842;2024-03-06T01:05:50;7.00;99.90
39021;DHT22;25188;51.958;5.842;2024-03-06T01:08:17;7.00;99.90
39021;DHT22;25188;51.958;5.842;2024-03-06T01:10:43;7.00;99.90
39021;DHT22;25188;51.958;5.842;2024-03-06T01:13:09;7.00;99.90
39021;DHT22;25188;51.958;5.842;2024-03-06T01:15:37;6.90;99.90
39021;DHT22;25188;51.958;5.842;2024-03-06T01:18:02;6.90;99.90
39021;DHT22;25188;51.958;5.842;2024-03-06T01:20:28;6.90;99.90
39021;DHT22;25188;51.958;5.842;2024-03-06T01:22:54;6.90;99.90
39021;DHT22;25188;51.958;5.842;2024-03-06T01:25:20;6.80;99.90
39021;DHT22;25188;51.958;5.842;2024-03-06T01:27:48;6.80;99.90
39021;DHT22;25188;51.958;5.842;2024-03-06T01:30:14;6.80;99.90
39021;DHT22;25188;51.958;5.842;2024-03-06T01:32:40;6.70;99.90
39021;DHT22;25188;51.958;5.842;2024-03-06T01:35:06;6.70;99.90
39021;DHT22;25188;51.958;5.842;2024-03-06T01:37:32;6.70;99.90
39021;DHT22;25188;51.958;5.842;2024-03-06T01:39:58;6.60;99.90
39021;DHT22;25188;51.958;5.842;2024-03-06T01:42:23;6.60;99.90
39021;DHT22;25188;51.958;5.842;2024-03-06T01:44:49;6.60;99.90
39021;DHT22;25188;51.958;5.842;2024-03-06T01:47:15;6.60;99.90
39021;DHT22;25188;51.958;5.842;2024-03-06T01:49:41;6.50;99.90
39021;DHT22;25188;51.958;5.842;2024-03-06T01:52:09;6.50;99.90
39021;DHT22;25188;51.958;5.842;2024-03-06T01:54:37;6.40;99.90
39021;DHT22;25188;51.958;5.842;2024-03-06T01:57:04;6.50;99.90
39021;DHT22;25188;51.958;5.842;2024-03-06T01:59:30;6.40;99.90
39021;DHT22;25188;51.958;5.842;2024-03-06T02:01:56;6.30;99.90
39021;DHT22;25188;51.958;5.842;2024-03-06T02:04:23;6.30;99.90
39021;DHT22;25188;51.958;5.842;2024-03-06T02:06:49;6.30;99.90
39021;DHT22;25188;51.958;5.842;2024-03-06T02:09:15;6.30;99.90
39021;DHT22;25188;51.958;5.842;2024-03-06T02:11:41;6.30;99.90
39021;DHT22;25188;51.958;5.842;2024-03-06T02:14:07;6.20;99.90
39021;DHT22;25188;51.958;5.842;2024-03-06T02:16:38;6.20;99.90
39021;DHT22;25188;51.958;5.842;2024-03-06T02:19:08;6.20;99.90
39021;DHT22;25188;51.958;5.842;2024-03-06T02:21:34;6.20;99.90
39021;DHT22;25188;51.958;5.842;2024-03-06T02:24:00;6.10;99.90
39021;DHT22;25188;51.958;5.842;2024-03-06T02:26:26;6.10;99.90
39021;DHT22;25188;51.958;5.842;2024-03-06T02:28:53;6.00;99.90
39021;DHT22;25188;51.958;5.842;2024-03-06T02:31:20;6.00;99.90
39021;DHT22;25188;51.958;5.842;2024-03-06T02:33:47;6.00;99.90
39021;DHT22;25188;51.958;5.842;2024-03-06T02:36:22;6.00;99.90
39021;DHT22;25188;51.958;5.842;2024-03-06T02:38:48;6.00;99.90
39021;DHT22;25188;51.958;5.842;2024-03-06T02:41:14;5.90;99.90
39021;DHT22;25188;51.958;5.842;2024-03-06T02:43:41;5.90;99.90
39021;DHT22;25188;51.958;5.842;2024-03-06T02:46:08;5.80;99.90
39021;DHT22;25188;51.958;5.842;2024-03-06T02:48:33;5.90;99.90
39021;DHT22;25188;51.958;5.842;2024-03-06T02:50:59;5.80;99.90
39021;DHT22;25188;51.958;5.842;2024-03-06T02:53:25;5.80;99.90
39021;DHT22;25188;51.958;5.842;2024-03-06T02:55:52;5.80;99.90
39021;DHT22;25188;51.958;5.842;2024-03-06T02:58:17;5.80;99.90
39021;DHT22;25188;51.958;5.842;2024-03-06T03:00:43;5.80;99.90
39021;DHT22;25188;51.958;5.842;2024-03-06T03:03:09;5.70;99.90
39021;DHT22;25188;51.958;5.842;2024-03-06T03:05:37;5.70;99.90
39021;DHT22;25188;51.958;5.842;2024-03-06T03:08:03;5.70;99.90
39021;DHT22;25188;51.958;5.842;2024-03-06T03:10:30;5.70;99.90
39021;DHT22;25188;51.958;5.842;2024-03-06T03:12:56;5.70;99.90
39021;DHT22;25188;51.958;5.842;2024-03-06T03:15:22;5.70;99.90
39021;DHT22;25188;51.958;5.842;2024-03-06T03:17:48;5.70;99.90
39021;DHT22;25188;51.958;5.842;2024-03-06T03:20:13;5.70;99.90
39021;DHT22;25188;51.958;5.842;2024-03-06T03:22:40;5.70;99.90
39021;DHT22;25188;51.958;5.842;2024-03-06T03:25:10;5.60;99.90
39021;DHT22;25188;51.958;5.842;2024-03-06T03:27:37;5.60;99.90
39021;DHT22;25188;51.958;5.842;2024-03-06T03:30:08;5.60;99.90
39021;DHT22;25188;51.958;5.842;2024-03-06T03:32:34;5.60;99.90
39021;DHT22;25188;51.958;5.842;2024-03-06T03:35:00;5.60;99.90
39021;DHT22;25188;51.958;5.842;2024-03-06T03:37:26;5.50;99.90
39021;DHT22;25188;51.958;5.842;2024-03-06T03:39:51;5.50;99.90
39021;DHT22;25188;51.958;5.842;2024-03-06T03:42:17;5.50;99.90
39021;DHT22;25188;51.958;5.842;2024-03-06T03:44:42;5.50;99.90
39021;DHT22;25188;51.958;5.842;2024-03-06T03:47:08;5.40;99.90
39021;DHT22;25188;51.958;5.842;2024-03-06T03:49:34;5.40;99.90
39021;DHT22;25188;51.958;5.842;2024-03-06T03:52:00;5.40;99.90
39021;DHT22;25188;51.958;5.842;2024-03-06T03:54:26;5.30;99.90
39021;DHT22;25188;51.958;5.842;2024-03-06T03:56:51;5.30;99.90
39021;DHT22;25188;51.958;5.842;2024-03-06T03:59:17;5.30;99.90
39021;DHT22;25188;51.958;5.842;2024-03-06T04:01:45;5.30;99.90
39021;DHT22;25188;51.958;5.842;2024-03-06T04:04:12;5.30;99.90
39021;DHT22;25188;51.958;5.842;2024-03-06T04:06:37;5.30;99.90
39021;DHT22;25188;51.958;5.842;2024-03-06T04:09:03;5.20;99.90
39021;DHT22;25188;51.958;5.842;2024-03-06T04:11:30;5.20;99.90
39021;DHT22;25188;51.958;5.842;2024-03-06T04:13:56;5.20;99.90
39021;DHT22;25188;51.958;5.842;2024-03-06T04:16:21;5.20;99.90
39021;DHT22;25188;51.958;5.842;2024-03-06T04:18:47;5.20;99.90
39021;DHT22;25188;51.958;5.842;2024-03-06T04:21:13;5.20;99.90
39021;DHT22;25188;51.958;5.842;2024-03-06T04:23:40;5.20;99.90
39021;DHT22;25188;51.958;5.842;2024-03-06T04:26:06;5.20;99.90
39021;DHT22;25188;51.958;5.842;2024-03-06T04:28:31;5.20;99.90
39021;DHT22;25188;51.958;5.842;2024-03-06T04:30:57;5.20;99.90
39021;DHT22;25188;51.958;5.842;2024-03-06T04:33:23;5.20;99.90
39021;DHT22;25188;51.958;5.842;2024-03-06T04:35:49;5.10;99.90
39021;DHT22;25188;51.958;5.842;2024-03-06T04:38:14;5.10;99.90
39021;DHT22;25188;51.958;5.842;2024-03-06T04:40:40;5.10;99.90
39021;DHT22;25188;51.958;5.842;2024-03-06T04:43:06;5.10;99.90
39021;DHT22;25188;51.958;5.842;2024-03-06T04:45:33;5.10;99.90
39021;DHT22;25188;51.958;5.842;2024-03-06T04:47:58;5.00;99.90
39021;DHT22;25188;51.958;5.842;2024-03-06T04:50:24;5.00;99.90
39021;DHT22;25188;51.958;5.842;2024-03-06T04:52:50;5.00;99.90
39021;DHT22;25188;51.958;5.842;2024-03-06T04:55:16;4.90;99.90
39021;DHT22;25188;51.958;5.842;2024-03-06T04:57:46;4.90;99.90
39021;DHT22;25188;51.958;5.842;2024-03-06T05:00:12;4.90;99.90
39021;DHT22;25188;51.958;5.842;2024-03-06T05:02:38;4.80;99.90
39021;DHT22;25188;51.958;5.842;2024-03-06T05:05:04;4.80;99.90
39021;DHT22;25188;51.958;5.842;2024-03-06T05:07:31;4.80;99.90
39021;DHT22;25188;51.958;5.842;2024-03-06T05:09:57;4.80;99.90
39021;DHT22;25188;51.958;5.842;2024-03-06T05:12:24;4.70;99.90
39021;DHT22;25188;51.958;5.842;2024-03-06T05:14:54;4.70;99.90
39021;DHT22;25188;51.958;5.842;2024-03-06T05:17:20;4.70;99.90
39021;DHT22;25188;51.958;5.842;2024-03-06T05:19:46;4.70;99.90
39021;DHT22;25188;51.958;5.842;2024-03-06T05:22:16;4.70;99.90
39021;DHT22;25188;51.958;5.842;2024-03-06T05:24:42;4.70;99.90
39021;DHT22;25188;51.958;5.842;2024-03-06T05:27:09;4.60;99.90
39021;DHT22;25188;51.958;5.842;2024-03-06T05:29:42;4.60;99.90
39021;DHT22;25188;51.958;5.842;2024-03-06T05:32:08;4.60;99.90
39021;DHT22;25188;51.958;5.842;2024-03-06T05:34:34;4.60;99.90
39021;DHT22;25188;51.958;5.842;2024-03-06T05:37:00;4.60;99.90
39021;DHT22;25188;51.958;5.842;2024-03-06T05:39:27;4.60;99.90
39021;DHT22;25188;51.958;5.842;2024-03-06T05:41:59;4.50;99.90
39021;DHT22;25188;51.958;5.842;2024-03-06T05:44:25;4.50;99.90
39021;DHT22;25188;51.958;5.842;2024-03-06T05:46:50;4.50;99.90
39021;DHT22;25188;51.958;5.842;2024-03-06T05:49:16;4.50;99.90
39021;DHT22;25188;51.958;5.842;2024-03-06T05:51:42;4.50;99.90
39021;DHT22;25188;51.958;5.842;2024-03-06T05:54:07;4.50;99.90
39021;DHT22;25188;51.958;5.842;2024-03-06T05:56:37;4.50;99.90
39021;DHT22;25188;51.958;5.842;2024-03-06T05:59:04;4.50;99.90
39021;DHT22;25188;51.958;5.842;2024-03-06T06:01:34;4.60;99.90
39021;DHT22;25188;51.958;5.842;2024-03-06T06:04:00;4.60;99.90
39021;DHT22;25188;51.958;5.842;2024-03-06T06:06:26;4.60;99.90
39021;DHT22;25188;51.958;5.842;2024-03-06T06:08:52;4.60;99.90
39021;DHT22;25188;51.958;5.842;2024-03-06T06:11:17;4.70;99.90
39021;DHT22;25188;51.958;5.842;2024-03-06T06:13:43;4.70;99.90
39021;DHT22;25188;51.958;5.842;2024-03-06T06:16:09;4.70;99.90
39021;DHT22;25188;51.958;5.842;2024-03-06T06:18:34;4.80;99.90
39021;DHT22;25188;51.958;5.842;2024-03-06T06:21:00;4.80;99.90
39021;DHT22;25188;51.958;5.842;2024-03-06T06:23:26;4.80;99.90
39021;DHT22;25188;51.958;5.842;2024-03-06T06:25:52;4.80;99.90
39021;DHT22;25188;51.958;5.842;2024-03-06T06:28:18;4.80;99.90
39021;DHT22;25188;51.958;5.842;2024-03-06T06:30:43;4.80;99.90
39021;DHT22;25188;51.958;5.842;2024-03-06T06:33:09;4.90;99.90
39021;DHT22;25188;51.958;5.842;2024-03-06T06:35:35;4.90;99.90
39021;DHT22;25188;51.958;5.842;2024-03-06T06:38:01;4.90;99.90
39021;DHT22;25188;51.958;5.842;2024-03-06T06:40:27;4.90;99.90
39021;DHT22;25188;51.958;5.842;2024-03-06T06:42:56;5.00;99.90
39021;DHT22;25188;51.958;5.842;2024-03-06T06:45:21;5.00;99.90
39021;DHT22;25188;51.958;5.842;2024-03-06T06:47:48;5.00;99.90
39021;DHT22;25188;51.958;5.842;2024-03-06T06:50:14;5.00;99.90
39021;DHT22;25188;51.958;5.842;2024-03-06T06:52:40;5.10;99.90
39021;DHT22;25188;51.958;5.842;2024-03-06T06:55:06;5.10;99.90
39021;DHT22;25188;51.958;5.842;2024-03-06T06:57:32;5.10;99.90
39021;DHT22;25188;51.958;5.842;2024-03-06T06:59:59;5.20;99.90
39021;DHT22;25188;51.958;5.842;2024-03-06T07:02:24;5.30;99.90
39021;DHT22;25188;51.958;5.842;2024-03-06T07:04:51;5.30;99.90
39021;DHT22;25188;51.958;5.842;2024-03-06T07:07:17;5.40;99.90
39021;DHT22;25188;51.958;5.842;2024-03-06T07:09:43;5.40;99.90
39021;DHT22;25188;51.958;5.842;2024-03-06T07:12:09;5.50;99.90
39021;DHT22;25188;51.958;5.842;2024-03-06T07:14:35;5.60;99.90
39021;DHT22;25188;51.958;5.842;2024-03-06T07:17:01;5.60;99.90
39021;DHT22;25188;51.958;5.842;2024-03-06T07:19:26;5.70;99.90
39021;DHT22;25188;51.958;5.842;2024-03-06T07:21:52;5.70;99.90
39021;DHT22;25188;51.958;5.842;2024-03-06T07:24:19;5.70;99.90
39021;DHT22;25188;51.958;5.842;2024-03-06T07:27:12;5.80;99.90
39021;DHT22;25188;51.958;5.842;2024-03-06T07:29:49;5.80;99.90
39021;DHT22;25188;51.958;5.842;2024-03-06T07:32:39;5.80;99.90
39021;DHT22;25188;51.958;5.842;2024-03-06T07:35:10;5.90;99.90
39021;DHT22;25188;51.958;5.842;2024-03-06T07:37:56;5.90;99.90
39021;DHT22;25188;51.958;5.842;2024-03-06T07:40:21;5.90;99.90
39021;DHT22;25188;51.958;5.842;2024-03-06T07:42:47;5.90;99.90
39021;DHT22;25188;51.958;5.842;2024-03-06T07:45:13;5.90;99.90
39021;DHT22;25188;51.958;5.842;2024-03-06T07:47:38;6.00;99.90
39021;DHT22;25188;51.958;5.842;2024-03-06T07:50:07;6.00;99.90
39021;DHT22;25188;51.958;5.842;2024-03-06T07:52:33;6.10;99.90
39021;DHT22;25188;51.958;5.842;2024-03-06T07:54:59;6.10;99.90
39021;DHT22;25188;51.958;5.842;2024-03-06T07:57:25;6.20;99.90
39021;DHT22;25188;51.958;5.842;2024-03-06T07:59:50;6.20;99.90
39021;DHT22;25188;51.958;5.842;2024-03-06T08:02:17;6.30;99.90
39021;DHT22;25188;51.958;5.842;2024-03-06T08:04:43;6.40;99.90
39021;DHT22;25188;51.958;5.842;2024-03-06T08:07:09;6.40;99.90
39021;DHT22;25188;51.958;5.842;2024-03-06T08:09:34;6.40;99.90
39021;DHT22;25188;51.958;5.842;2024-03-06T08:12:00;6.50;99.90
39021;DHT22;25188;51.958;5.842;2024-03-06T08:14:27;6.50;99.90
39021;DHT22;25188;51.958;5.842;2024-03-06T08:16:52;6.60;99.90
39021;DHT22;25188;51.958;5.842;2024-03-06T08:19:19;6.70;99.90
39021;DHT22;25188;51.958;5.842;2024-03-06T08:21:45;6.80;99.90
39021;DHT22;25188;51.958;5.842;2024-03-06T08:24:11;6.80;99.90
39021;DHT22;25188;51.958;5.842;2024-03-06T08:26:37;6.80;99.90
39021;DHT22;25188;51.958;5.842;2024-03-06T08:29:03;6.90;99.90
39021;DHT22;25188;51.958;5.842;2024-03-06T08:31:29;7.00;99.90
39021;DHT22;25188;51.958;5.842;2024-03-06T08:33:54;7.10;99.90
39021;DHT22;25188;51.958;5.842;2024-03-06T08:36:20;7.10;99.90
39021;DHT22;25188;51.958;5.842;2024-03-06T08:38:46;7.20;99.90
39021;DHT22;25188;51.958;5.842;2024-03-06T08:41:12;7.30;99.90
39021;DHT22;25188;51.958;5.842;2024-03-06T08:43:37;7.30;99.90
39021;DHT22;25188;51.958;5.842;2024-03-06T08:46:03;7.30;99.90
39021;DHT22;25188;51.958;5.842;2024-03-06T08:48:30;7.40;99.90
39021;DHT22;25188;51.958;5.842;2024-03-06T08:50:56;7.40;99.90
39021;DHT22;25188;51.958;5.842;2024-03-06T08:53:21;7.40;99.90
39021;DHT22;25188;51.958;5.842;2024-03-06T08:55:47;7.50;99.90
39021;DHT22;25188;51.958;5.842;2024-03-06T08:58:13;7.50;99.90
39021;DHT22;25188;51.958;5.842;2024-03-06T09:00:39;7.60;99.90
39021;DHT22;25188;51.958;5.842;2024-03-06T09:03:05;7.60;99.90
39021;DHT22;25188;51.958;5.842;2024-03-06T09:05:31;7.70;99.90
39021;DHT22;25188;51.958;5.842;2024-03-06T09:07:57;7.70;99.90
39021;DHT22;25188;51.958;5.842;2024-03-06T09:10:23;7.80;99.90
39021;DHT22;25188;51.958;5.842;2024-03-06T09:12:48;7.80;99.90
39021;DHT22;25188;51.958;5.842;2024-03-06T09:15:15;7.90;99.90
39021;DHT22;25188;51.958;5.842;2024-03-06T09:17:41;7.90;99.90
39021;DHT22;25188;51.958;5.842;2024-03-06T09:20:08;8.00;99.90
39021;DHT22;25188;51.958;5.842;2024-03-06T09:22:37;8.00;99.90
39021;DHT22;25188;51.958;5.842;2024-03-06T09:25:04;8.10;99.90
39021;DHT22;25188;51.958;5.842;2024-03-06T09:27:30;8.10;99.90
39021;DHT22;25188;51.958;5.842;2024-03-06T09:29:56;8.10;99.90
39021;DHT22;25188;51.958;5.842;2024-03-06T09:32:21;8.20;99.90
39021;DHT22;25188;51.958;5.842;2024-03-06T09:34:47;8.20;99.90
39021;DHT22;25188;51.958;5.842;2024-03-06T09:37:13;8.20;99.90
39021;DHT22;25188;51.958;5.842;2024-03-06T09:39:40;8.30;99.90
39021;DHT22;25188;51.958;5.842;2024-03-06T09:42:06;8.30;99.90
39021;DHT22;25188;51.958;5.842;2024-03-06T09:44:33;8.40;99.90
39021;DHT22;25188;51.958;5.842;2024-03-06T09:47:01;8.50;99.90
39021;DHT22;25188;51.958;5.842;2024-03-06T09:49:29;8.50;99.90
39021;DHT22;25188;51.958;5.842;2024-03-06T09:51:56;8.60;99.90
39021;DHT22;25188;51.958;5.842;2024-03-06T09:54:23;8.70;99.90
39021;DHT22;25188;51.958;5.842;2024-03-06T09:56:51;8.80;99.90
39021;DHT22;25188;51.958;5.842;2024-03-06T09:59:17;8.90;99.90
39021;DHT22;25188;51.958;5.842;2024-03-06T10:01:56;8.90;99.90
39021;DHT22;25188;51.958;5.842;2024-03-06T10:04:29;9.00;99.90
39021;DHT22;25188;51.958;5.842;2024-03-06T10:06:59;9.00;99.90
39021;DHT22;25188;51.958;5.842;2024-03-06T10:09:26;9.00;99.90
39021;DHT22;25188;51.958;5.842;2024-03-06T10:11:53;9.00;99.90
39021;DHT22;25188;51.958;5.842;2024-03-06T10:14:19;9.00;99.90
39021;DHT22;25188;51.958;5.842;2024-03-06T10:16:56;9.10;99.90
39021;DHT22;25188;51.958;5.842;2024-03-06T10:19:23;9.20;99.90
39021;DHT22;25188;51.958;5.842;2024-03-06T10:21:49;9.20;99.90
39021;DHT22;25188;51.958;5.842;2024-03-06T10:24:24;9.20;99.90
39021;DHT22;25188;51.958;5.842;2024-03-06T10:26:50;9.20;99.90
39021;DHT22;25188;51.958;5.842;2024-03-06T10:29:20;9.30;99.90
39021;DHT22;25188;51.958;5.842;2024-03-06T10:34:16;9.40;99.90
39021;DHT22;25188;51.958;5.842;2024-03-06T10:36:42;9.40;99.90
39021;DHT22;25188;51.958;5.842;2024-03-06T10:39:11;9.50;99.90
39021;DHT22;25188;51.958;5.842;2024-03-06T10:41:38;9.50;99.90
39021;DHT22;25188;51.958;5.842;2024-03-06T10:44:08;9.60;99.90
39021;DHT22;25188;51.958;5.842;2024-03-06T10:46:41;9.60;99.90
39021;DHT22;25188;51.958;5.842;2024-03-06T10:49:09;9.70;99.90
39021;DHT22;25188;51.958;5.842;2024-03-06T10:51:38;9.80;99.90
39021;DHT22;25188;51.958;5.842;2024-03-06T10:54:08;9.90;99.90
39021;DHT22;25188;51.958;5.842;2024-03-06T10:56:34;9.90;99.90
39021;DHT22;25188;51.958;5.842;2024-03-06T10:59:00;10.00;99.90
39021;DHT22;25188;51.958;5.842;2024-03-06T11:01:29;10.00;99.90
39021;DHT22;25188;51.958;5.842;2024-03-06T11:03:59;10.10;99.90
39021;DHT22;25188;51.958;5.842;2024-03-06T11:06:26;10.20;99.90
39021;DHT22;25188;51.958;5.842;2024-03-06T11:08:52;10.30;99.90
39021;DHT22;25188;51.958;5.842;2024-03-06T11:11:24;10.30;99.90
39021;DHT22;25188;51.958;5.842;2024-03-06T11:13:54;10.40;99.90
39021;DHT22;25188;51.958;5.842;2024-03-06T11:16:32;10.60;99.90
39021;DHT22;25188;51.958;5.842;2024-03-06T11:19:18;10.80;99.90
39021;DHT22;25188;51.958;5.842;2024-03-06T11:21:47;10.80;99.90
39021;DHT22;25188;51.958;5.842;2024-03-06T11:24:18;10.90;99.90
39021;DHT22;25188;51.958;5.842;2024-03-06T11:27:02;10.90;99.90
39021;DHT22;25188;51.958;5.842;2024-03-06T11:30:02;10.90;99.90
39021;DHT22;25188;51.958;5.842;2024-03-06T11:32:28;10.90;99.90
39021;DHT22;25188;51.958;5.842;2024-03-06T11:34:54;10.90;99.90
39021;DHT22;25188;51.958;5.842;2024-03-06T11:37:21;11.00;99.90
39021;DHT22;25188;51.958;5.842;2024-03-06T11:39:48;11.20;99.90
39021;DHT22;25188;51.958;5.842;2024-03-06T11:42:14;11.60;99.90
39021;DHT22;25188;51.958;5.842;2024-03-06T11:44:54;12.10;99.90
39021;DHT22;25188;51.958;5.842;2024-03-06T11:47:24;12.40;99.90
39021;DHT22;25188;51.958;5.842;2024-03-06T11:49:50;12.60;99.90
39021;DHT22;25188;51.958;5.842;2024-03-06T11:52:17;12.70;99.90
39021;DHT22;25188;51.958;5.842;2024-03-06T11:54:43;12.90;99.90
39021;DHT22;25188;51.958;5.842;2024-03-06T11:57:09;13.00;99.90
39021;DHT22;25188;51.958;5.842;2024-03-06T11:59:36;13.10;99.90
39021;DHT22;25188;51.958;5.842;2024-03-06T12:02:05;13.30;99.90
39021;DHT22;25188;51.958;5.842;2024-03-06T12:04:32;13.40;99.90
39021;DHT22;25188;51.958;5.842;2024-03-06T12:07:03;13.60;99.90
39021;DHT22;25188;51.958;5.842;2024-03-06T12:09:35;13.90;99.90
39021;DHT22;25188;51.958;5.842;2024-03-06T12:12:01;14.50;99.90
39021;DHT22;25188;51.958;5.842;2024-03-06T12:14:27;15.00;99.90
39021;DHT22;25188;51.958;5.842;2024-03-06T12:16:57;15.50;99.90
39021;DHT22;25188;51.958;5.842;2024-03-06T12:19:28;16.10;99.90
39021;DHT22;25188;51.958;5.842;2024-03-06T12:21:55;16.90;99.90
39021;DHT22;25188;51.958;5.842;2024-03-06T12:24:21;17.70;99.90
39021;DHT22;25188;51.958;5.842;2024-03-06T12:26:47;18.30;99.90
39021;DHT22;25188;51.958;5.842;2024-03-06T12:29:23;18.90;99.10
39021;DHT22;25188;51.958;5.842;2024-03-06T12:31:48;19.40;97.60
39021;DHT22;25188;51.958;5.842;2024-03-06T12:34:15;19.80;96.20
39021;DHT22;25188;51.958;5.842;2024-03-06T12:36:42;20.50;94.50
39021;DHT22;25188;51.958;5.842;2024-03-06T12:39:08;21.00;91.10
39021;DHT22;25188;51.958;5.842;2024-03-06T12:41:40;21.50;89.50
39021;DHT22;25188;51.958;5.842;2024-03-06T12:44:06;22.00;84.00
39021;DHT22;25188;51.958;5.842;2024-03-06T12:46:32;22.40;81.00
39021;DHT22;25188;51.958;5.842;2024-03-06T12:48:58;22.80;78.10
39021;DHT22;25188;51.958;5.842;2024-03-06T12:51:24;23.30;76.30
39021;DHT22;25188;51.958;5.842;2024-03-06T12:53:49;23.70;74.20
39021;DHT22;25188;51.958;5.842;2024-03-06T12:56:17;24.00;73.10
39021;DHT22;25188;51.958;5.842;2024-03-06T12:58:42;24.40;70.60
39021;DHT22;25188;51.958;5.842;2024-03-06T13:01:08;24.70;68.30
39021;DHT22;25188;51.958;5.842;2024-03-06T13:03:34;25.00;66.80
39021;DHT22;25188;51.958;5.842;2024-03-06T13:06:00;25.30;64.80
39021;DHT22;25188;51.958;5.842;2024-03-06T13:08:26;25.70;63.30
39021;DHT22;25188;51.958;5.842;2024-03-06T13:10:52;26.00;62.20
39021;DHT22;25188;51.958;5.842;2024-03-06T13:13:17;26.30;61.20
39021;DHT22;25188;51.958;5.842;2024-03-06T13:15:43;26.60;59.70
39021;DHT22;25188;51.958;5.842;2024-03-06T13:18:09;26.80;58.10
39021;DHT22;25188;51.958;5.842;2024-03-06T13:20:35;26.90;56.90
39021;DHT22;25188;51.958;5.842;2024-03-06T13:23:01;27.10;55.40
39021;DHT22;25188;51.958;5.842;2024-03-06T13:25:26;27.30;54.30
39021;DHT22;25188;51.958;5.842;2024-03-06T13:27:52;27.40;53.50
39021;DHT22;25188;51.958;5.842;2024-03-06T13:30:19;27.60;52.50
39021;DHT22;25188;51.958;5.842;2024-03-06T13:32:45;27.80;51.00
39021;DHT22;25188;51.958;5.842;2024-03-06T13:35:14;27.80;50.10
39021;DHT22;25188;51.958;5.842;2024-03-06T13:37:40;28.00;50.00
39021;DHT22;25188;51.958;5.842;2024-03-06T13:40:07;28.00;49.40
39021;DHT22;25188;51.958;5.842;2024-03-06T13:42:34;28.10;49.30
39021;DHT22;25188;51.958;5.842;2024-03-06T13:45:01;28.30;49.20
39021;DHT22;25188;51.958;5.842;2024-03-06T13:47:27;28.40;48.90
39021;DHT22;25188;51.958;5.842;2024-03-06T13:49:52;28.60;47.40
39021;DHT22;25188;51.958;5.842;2024-03-06T13:52:18;28.70;45.80
39021;DHT22;25188;51.958;5.842;2024-03-06T13:54:46;28.80;45.20
39021;DHT22;25188;51.958;5.842;2024-03-06T13:57:13;28.80;44.40
39021;DHT22;25188;51.958;5.842;2024-03-06T13:59:39;28.80;43.80
39021;DHT22;25188;51.958;5.842;2024-03-06T14:02:06;28.80;43.50
39021;DHT22;25188;51.958;5.842;2024-03-06T14:04:32;28.80;43.00
39021;DHT22;25188;51.958;5.842;2024-03-06T14:06:58;28.80;43.00
39021;DHT22;25188;51.958;5.842;2024-03-06T14:09:25;28.70;42.80
39021;DHT22;25188;51.958;5.842;2024-03-06T14:11:51;28.70;42.90
39021;DHT22;25188;51.958;5.842;2024-03-06T14:14:17;28.80;42.90
39021;DHT22;25188;51.958;5.842;2024-03-06T14:16:43;28.90;42.40
39021;DHT22;25188;51.958;5.842;2024-03-06T14:19:09;28.90;42.10
39021;DHT22;25188;51.958;5.842;2024-03-06T14:21:36;28.90;42.10
39021;DHT22;25188;51.958;5.842;2024-03-06T14:24:01;28.80;41.10
39021;DHT22;25188;51.958;5.842;2024-03-06T14:26:32;28.80;40.80
39021;DHT22;25188;51.958;5.842;2024-03-06T14:28:59;28.70;40.30
39021;DHT22;25188;51.958;5.842;2024-03-06T14:31:24;28.50;40.20
39021;DHT22;25188;51.958;5.842;2024-03-06T14:33:50;28.40;40.20
39021;DHT22;25188;51.958;5.842;2024-03-06T14:36:16;28.30;40.50
39021;DHT22;25188;51.958;5.842;2024-03-06T14:38:43;28.30;40.60
39021;DHT22;25188;51.958;5.842;2024-03-06T14:41:12;28.30;40.80
39021;DHT22;25188;51.958;5.842;2024-03-06T14:43:37;28.40;40.80
39021;DHT22;25188;51.958;5.842;2024-03-06T14:46:05;28.50;40.80
39021;DHT22;25188;51.958;5.842;2024-03-06T14:48:31;28.60;40.40
39021;DHT22;25188;51.958;5.842;2024-03-06T14:50:57;28.30;39.60
39021;DHT22;25188;51.958;5.842;2024-03-06T14:53:23;27.90;39.50
39021;DHT22;25188;51.958;5.842;2024-03-06T14:55:49;27.30;39.90
39021;DHT22;25188;51.958;5.842;2024-03-06T14:58:15;26.80;40.20
39021;DHT22;25188;51.958;5.842;2024-03-06T15:00:41;26.20;40.50
39021;DHT22;25188;51.958;5.842;2024-03-06T15:03:07;25.60;40.90
39021;DHT22;25188;51.958;5.842;2024-03-06T15:05:34;24.90;41.40
39021;DHT22;25188;51.958;5.842;2024-03-06T15:08:00;24.30;42.10
39021;DHT22;25188;51.958;5.842;2024-03-06T15:10:26;23.70;42.70
39021;DHT22;25188;51.958;5.842;2024-03-06T15:12:51;23.50;43.40
39021;DHT22;25188;51.958;5.842;2024-03-06T15:15:17;23.10;43.70
39021;DHT22;25188;51.958;5.842;2024-03-06T15:17:43;22.80;44.30
39021;DHT22;25188;51.958;5.842;2024-03-06T15:20:11;22.60;44.80
39021;DHT22;25188;51.958;5.842;2024-03-06T15:22:38;22.50;44.90
39021;DHT22;25188;51.958;5.842;2024-03-06T15:25:10;22.30;45.10
39021;DHT22;25188;51.958;5.842;2024-03-06T15:27:40;22.10;45.30
39021;DHT22;25188;51.958;5.842;2024-03-06T15:30:07;21.70;45.60
39021;DHT22;25188;51.958;5.842;2024-03-06T15:32:37;21.50;46.00
39021;DHT22;25188;51.958;5.842;2024-03-06T15:35:04;21.10;46.40
39021;DHT22;25188;51.958;5.842;2024-03-06T15:37:30;20.80;47.00
39021;DHT22;25188;51.958;5.842;2024-03-06T15:39:57;20.50;47.50
39021;DHT22;25188;51.958;5.842;2024-03-06T15:42:24;20.40;48.00